createdAt,value
2018-11-21T00:01:13.003Z,13.73
2018-11-21T00:03:43.981Z,14.37
2018-11-21T00:06:14.934Z,11.97
2018-11-21T00:08:45.957Z,13.70
2018-11-21T00:11:16.909Z,14.50
2018-11-21T00:13:47.878Z,14.10
2018-11-21T00:16:18.860Z,13.00
2018-11-21T00:18:49.863Z,14.47
2018-11-21T00:21:20.811Z,14.37
2018-11-21T00:23:51.877Z,14.87
2018-11-21T00:26:22.834Z,11.83
2018-11-21T00:28:53.818Z,12.97
2018-11-21T00:31:24.773Z,14.07
2018-11-21T00:33:55.807Z,14.30
2018-11-21T00:36:26.798Z,14.03
2018-11-21T00:38:57.776Z,16.10
2018-11-21T00:41:28.754Z,14.57
2018-11-21T00:43:59.738Z,12.87
2018-11-21T00:46:30.705Z,14.00
2018-11-21T00:49:01.694Z,13.23
2018-11-21T00:51:32.596Z,11.53
2018-11-21T00:54:03.656Z,12.10
2018-11-21T00:56:35.286Z,13.40
2018-11-21T00:59:06.137Z,12.77
2018-11-21T01:01:37.171Z,12.60
2018-11-21T01:04:08.114Z,13.83
2018-11-21T01:06:39.086Z,12.23
2018-11-21T01:09:10.040Z,13.33
2018-11-21T01:11:41.023Z,12.77
2018-11-21T01:14:11.998Z,15.87
2018-11-21T01:16:43.056Z,14.40
2018-11-21T01:19:13.995Z,11.90
2018-11-21T01:21:44.969Z,13.37
2018-11-21T01:24:15.895Z,11.33
2018-11-21T01:26:46.853Z,13.67
2018-11-21T01:29:17.769Z,12.93
2018-11-21T01:31:48.709Z,15.07
2018-11-21T01:34:19.643Z,13.87
2018-11-21T01:36:50.585Z,14.27
2018-11-21T01:39:21.512Z,14.53
2018-11-21T01:41:52.477Z,12.60
2018-11-21T01:44:23.411Z,14.97
2018-11-21T01:46:54.363Z,13.83
2018-11-21T01:49:25.338Z,12.67
2018-11-21T01:51:56.286Z,11.97
2018-11-21T01:54:27.225Z,15.30
2018-11-21T01:56:58.191Z,13.10
2018-11-21T01:59:29.148Z,15.23
2018-11-21T02:02:00.098Z,13.83
2018-11-21T02:04:31.030Z,13.40
2018-11-21T02:07:02.004Z,12.97
2018-11-21T02:09:32.930Z,12.73
2018-11-21T02:12:03.912Z,10.77
2018-11-21T02:14:34.896Z,12.27
2018-11-21T02:17:06.039Z,13.17
2018-11-21T02:19:36.965Z,15.93
2018-11-21T02:22:08.046Z,13.07
2018-11-21T02:24:38.961Z,13.67
2018-11-21T02:27:09.904Z,11.50
2018-11-21T02:29:40.829Z,12.23
2018-11-21T02:32:11.766Z,12.60
2018-11-21T02:34:42.708Z,11.50
2018-11-21T02:37:13.652Z,12.47
2018-11-21T02:39:44.569Z,15.77
2018-11-21T02:42:15.511Z,13.33
2018-11-21T02:44:46.438Z,12.23
2018-11-21T02:47:17.387Z,12.37
2018-11-21T02:49:48.308Z,13.37
2018-11-21T02:52:19.250Z,13.00
2018-11-21T02:54:50.187Z,13.60
2018-11-21T02:57:23.583Z,13.23
2018-11-21T02:59:57.760Z,13.27
2018-11-21T03:02:28.725Z,12.23
2018-11-21T03:04:59.652Z,12.43
2018-11-21T03:07:30.680Z,12.83
2018-11-21T03:10:01.605Z,12.80
2018-11-21T03:12:32.623Z,13.13
2018-11-21T03:15:03.543Z,12.87
2018-11-21T03:17:34.552Z,12.63
2018-11-21T03:20:05.560Z,11.50
2018-11-21T03:22:36.631Z,13.07
2018-11-21T03:25:07.630Z,13.57
2018-11-21T03:27:38.604Z,11.73
2018-11-21T03:30:11.191Z,12.43
2018-11-21T03:32:42.573Z,14.27
2018-11-21T03:35:13.515Z,11.77
2018-11-21T03:37:44.497Z,11.40
2018-11-21T03:40:15.380Z,12.93
2018-11-21T03:42:46.428Z,12.90
2018-11-21T03:45:20.973Z,11.37
2018-11-21T03:47:52.007Z,13.27
2018-11-21T03:50:22.885Z,10.57
2018-11-21T03:52:54.167Z,12.47
2018-11-21T03:55:25.117Z,13.13
2018-11-21T03:57:56.114Z,11.47
2018-11-21T04:00:27.068Z,12.80
2018-11-21T04:02:58.055Z,13.00
2018-11-21T04:05:28.998Z,12.80
2018-11-21T04:07:59.979Z,13.87
2018-11-21T04:10:30.945Z,13.00
2018-11-21T04:13:01.932Z,13.57
2018-11-21T04:15:32.882Z,14.37
2018-11-21T04:18:03.856Z,13.43
2018-11-21T04:20:34.796Z,13.77
2018-11-21T04:23:05.802Z,12.30
2018-11-21T04:25:36.795Z,14.93
2018-11-21T04:28:07.680Z,11.00
2018-11-21T04:30:38.660Z,11.70
2018-11-21T04:33:09.608Z,12.97
2018-11-21T04:35:40.643Z,12.60
2018-11-21T04:38:11.528Z,12.60
2018-11-21T04:40:42.519Z,14.97
2018-11-21T04:43:13.557Z,14.07
2018-11-21T04:45:44.485Z,14.87
2018-11-21T04:48:15.437Z,15.67
2018-11-21T04:50:46.420Z,12.40
2018-11-21T04:53:17.367Z,12.37
2018-11-21T04:55:48.288Z,12.90
2018-11-21T04:58:19.241Z,13.30
2018-11-21T05:00:50.166Z,14.03
2018-11-21T05:03:21.620Z,15.37
2018-11-21T05:05:52.538Z,14.53
2018-11-21T05:08:23.492Z,12.27
2018-11-21T05:10:54.415Z,12.57
2018-11-21T05:13:25.367Z,17.10
2018-11-21T05:15:56.229Z,11.57
2018-11-21T05:18:27.338Z,13.73
2018-11-21T05:20:58.284Z,13.07
2018-11-21T05:23:29.269Z,16.57
2018-11-21T05:26:00.214Z,15.97
2018-11-21T05:28:31.130Z,12.03
2018-11-21T05:31:02.157Z,13.17
2018-11-21T05:33:33.136Z,14.10
2018-11-21T05:36:04.095Z,13.20
2018-11-21T05:38:35.081Z,13.57
2018-11-21T05:41:06.452Z,12.93
2018-11-21T05:43:37.433Z,12.13
2018-11-21T05:46:08.381Z,16.73
2018-11-21T05:48:39.496Z,14.70
2018-11-21T05:51:10.471Z,15.90
2018-11-21T05:53:41.474Z,14.00
2018-11-21T05:56:12.440Z,14.27
2018-11-21T05:58:43.418Z,13.13
2018-11-21T06:01:14.388Z,16.07
2018-11-21T06:03:45.360Z,15.17
2018-11-21T06:06:16.606Z,13.10
2018-11-21T06:08:47.589Z,15.27
2018-11-21T06:11:18.542Z,13.07
2018-11-21T06:13:49.467Z,10.97
2018-11-21T06:16:20.472Z,13.87
2018-11-21T06:18:51.504Z,14.60
2018-11-21T06:21:22.453Z,14.40
2018-11-21T06:23:53.680Z,14.23
2018-11-21T06:26:24.604Z,15.23
2018-11-21T06:28:55.563Z,15.67
2018-11-21T06:31:26.483Z,15.90
2018-11-21T06:33:57.542Z,13.80
2018-11-21T06:36:28.469Z,17.00
2018-11-21T06:38:59.424Z,13.93
2018-11-21T06:41:30.363Z,14.23
2018-11-21T06:44:01.280Z,14.20
2018-11-21T06:46:32.257Z,14.87
2018-11-21T06:49:03.179Z,15.10
2018-11-21T06:51:35.290Z,15.60
2018-11-21T06:54:06.431Z,14.27
2018-11-21T06:56:37.392Z,14.33
2018-11-21T06:59:08.325Z,14.77
2018-11-21T07:01:39.279Z,12.93
2018-11-21T07:04:10.201Z,13.87
2018-11-21T07:06:41.175Z,16.00
2018-11-21T07:09:12.921Z,14.00
2018-11-21T07:11:43.871Z,14.10
2018-11-21T07:14:14.795Z,14.20
2018-11-21T07:16:45.733Z,14.50
2018-11-21T07:19:16.672Z,14.03
2018-11-21T07:21:47.667Z,14.33
2018-11-21T07:24:18.623Z,14.13
2018-11-21T07:26:49.657Z,14.50
2018-11-21T07:29:20.603Z,15.40
2018-11-21T07:31:51.591Z,13.07
2018-11-21T07:34:22.563Z,14.57
2018-11-21T07:36:53.540Z,14.60
2018-11-21T07:39:24.496Z,13.27
2018-11-21T07:41:55.589Z,15.97
2018-11-21T07:44:26.522Z,17.00
2018-11-21T07:46:57.546Z,15.40
2018-11-21T07:49:28.525Z,14.33
2018-11-21T07:51:59.475Z,13.17
2018-11-21T07:54:30.445Z,14.03
2018-11-21T07:57:30.428Z,14.50
2018-11-21T08:01:18.312Z,14.53
2018-11-21T08:03:51.260Z,14.23
2018-11-21T08:06:24.930Z,13.07
2018-11-21T08:09:14.938Z,12.60
2018-11-21T08:12:07.891Z,13.63
2018-11-21T08:15:19.100Z,15.40
2018-11-21T08:18:18.327Z,14.73
2018-11-21T08:21:11.446Z,13.97
2018-11-21T08:24:06.967Z,16.63
2018-11-21T08:26:56.711Z,13.23
2018-11-21T08:29:27.680Z,13.93
2018-11-21T08:31:58.620Z,14.50
2018-11-21T08:34:29.573Z,14.53
2018-11-21T08:37:00.515Z,13.90
2018-11-21T08:39:31.474Z,15.67
2018-11-21T08:42:02.410Z,15.50
2018-11-21T08:44:33.426Z,14.60
2018-11-21T08:47:04.476Z,13.90
2018-11-21T08:49:35.444Z,13.80
2018-11-21T08:52:07.016Z,13.20
2018-11-21T08:54:38.091Z,13.20
2018-11-21T08:57:09.083Z,13.10
2018-11-21T08:59:40.106Z,14.80
2018-11-21T09:02:11.076Z,13.03
2018-11-21T09:04:42.559Z,14.37
2018-11-21T09:07:13.041Z,14.10
2018-11-21T09:09:44.056Z,13.07
2018-11-21T09:12:15.412Z,15.30
2018-11-21T09:14:46.063Z,14.60
2018-11-21T09:17:17.041Z,14.87
2018-11-21T09:19:48.018Z,13.60
2018-11-21T09:22:18.951Z,14.70
2018-11-21T09:24:49.940Z,13.73
2018-11-21T09:27:20.880Z,14.40
2018-11-21T09:29:51.867Z,13.87
2018-11-21T09:32:22.824Z,14.33
2018-11-21T09:34:53.781Z,13.80
2018-11-21T09:37:25.138Z,14.47
2018-11-21T09:39:56.097Z,13.50
2018-11-21T09:42:27.098Z,14.20
2018-11-21T09:44:58.069Z,15.33
2018-11-21T09:47:29.020Z,14.97
2018-11-21T09:50:00.016Z,11.77
2018-11-21T09:52:30.954Z,14.37
2018-11-21T09:55:01.927Z,13.63
2018-11-21T09:57:32.855Z,15.13
2018-11-21T10:00:23.239Z,11.97
2018-11-21T10:03:21.566Z,12.30
2018-11-21T10:06:25.435Z,14.47
2018-11-21T10:09:05.241Z,12.30
2018-11-21T10:11:37.206Z,12.07
2018-11-21T10:14:08.143Z,14.33
2018-11-21T10:16:39.113Z,13.07
2018-11-21T10:19:10.052Z,13.70
2018-11-21T10:21:41.069Z,16.20
2018-11-21T10:24:12.035Z,14.27
2018-11-21T10:26:43.015Z,11.83
2018-11-21T10:29:14.032Z,13.47
2018-11-21T10:31:45.017Z,13.47
2018-11-21T10:34:15.978Z,13.03
2018-11-21T10:36:46.954Z,12.67
2018-11-21T10:39:17.911Z,14.80
2018-11-21T10:41:48.879Z,13.30
2018-11-21T10:44:19.832Z,14.90
2018-11-21T10:46:50.804Z,15.10
2018-11-21T10:49:21.769Z,12.63
2018-11-21T10:51:52.752Z,14.33
2018-11-21T10:54:23.699Z,13.53
2018-11-21T10:56:54.680Z,15.97
2018-11-21T10:59:25.854Z,14.23
2018-11-21T11:02:14.666Z,12.30
2018-11-21T11:04:54.674Z,14.70
2018-11-21T11:07:43.396Z,11.87
2018-11-21T11:10:50.129Z,12.33
2018-11-21T11:13:47.701Z,11.63
2018-11-21T11:16:43.753Z,14.77
2018-11-21T11:19:33.798Z,12.10
2018-11-21T11:22:22.483Z,13.00
2018-11-21T11:25:18.202Z,12.60
2018-11-21T11:28:17.362Z,10.40
2018-11-21T11:31:01.809Z,11.80
2018-11-21T11:33:54.833Z,13.50
2018-11-21T11:36:54.040Z,12.53
2018-11-21T11:39:44.046Z,12.70
2018-11-21T11:42:32.812Z,12.57
2018-11-21T11:45:21.416Z,11.77
2018-11-21T11:48:26.536Z,12.40
2018-11-21T11:51:14.851Z,11.27
2018-11-21T11:54:03.504Z,12.57
2018-11-21T11:56:48.619Z,11.17
2018-11-21T11:59:41.729Z,11.60
2018-11-21T12:02:35.998Z,10.87
2018-11-21T12:05:36.752Z,14.53
2018-11-21T12:08:25.865Z,12.40
2018-11-21T12:11:21.724Z,11.03
2018-11-21T12:14:10.663Z,11.27
2018-11-21T12:17:06.508Z,10.57
2018-11-21T12:19:55.365Z,9.17
2018-11-21T12:23:00.345Z,10.47
2018-11-21T12:26:00.573Z,11.87
2018-11-21T12:28:53.473Z,10.47
2018-11-21T12:31:43.454Z,11.03
2018-11-21T12:34:32.026Z,11.37
2018-11-21T12:37:20.769Z,10.50
2018-11-21T12:40:13.609Z,9.63
2018-11-21T12:43:19.010Z,10.17
2018-11-21T12:46:11.966Z,9.40
2018-11-21T12:49:10.938Z,9.50
2018-11-21T12:51:58.949Z,8.70
2018-11-21T12:54:54.666Z,8.83
2018-11-21T12:57:43.329Z,9.77
2018-11-21T13:00:27.203Z,10.03
2018-11-21T13:03:18.788Z,10.87
2018-11-21T13:06:11.869Z,8.97
2018-11-21T13:08:56.843Z,9.73
2018-11-21T13:11:41.475Z,10.53
2018-11-21T13:14:30.179Z,11.00
2018-11-21T13:17:20.184Z,9.17
2018-11-21T13:20:12.891Z,9.33
2018-11-21T13:23:01.580Z,9.30
2018-11-21T13:25:50.246Z,8.13
2018-11-21T13:28:43.215Z,9.40
2018-11-21T13:31:33.210Z,8.00
2018-11-21T13:34:22.087Z,10.07
2018-11-21T13:37:17.844Z,9.77
2018-11-21T13:40:03.409Z,8.83
2018-11-21T13:42:54.225Z,8.73
2018-11-21T13:45:43.030Z,8.00
2018-11-21T13:48:45.358Z,10.60
2018-11-21T13:51:34.081Z,8.03
2018-11-21T13:54:24.596Z,9.23
2018-11-21T13:56:55.545Z,9.77
2018-11-21T13:59:26.684Z,8.17
2018-11-21T14:01:57.628Z,9.00
2018-11-21T14:04:28.573Z,9.67
2018-11-21T14:06:59.557Z,8.87
2018-11-21T14:09:30.485Z,8.60
2018-11-21T14:12:01.434Z,8.83
2018-11-21T14:14:32.358Z,9.77
2018-11-21T14:17:03.291Z,8.80
2018-11-21T14:19:34.219Z,10.73
2018-11-21T14:22:05.354Z,9.83
2018-11-21T14:24:36.278Z,8.93
2018-11-21T14:27:07.223Z,7.90
2018-11-21T14:29:38.148Z,8.87
2018-11-21T14:32:09.096Z,9.10
2018-11-21T14:34:40.052Z,7.80
2018-11-21T14:37:10.998Z,9.50
2018-11-21T14:39:41.954Z,9.00
2018-11-21T14:42:12.891Z,8.43
2018-11-21T14:44:43.832Z,8.43
2018-11-21T14:47:16.461Z,8.03
2018-11-21T14:49:53.372Z,7.60
2018-11-21T14:52:24.348Z,7.60
2018-11-21T14:54:55.287Z,7.57
2018-11-21T14:57:26.630Z,8.07
2018-11-21T14:59:57.544Z,8.07
2018-11-21T15:02:28.583Z,8.07
2018-11-21T15:04:59.491Z,7.80
2018-11-21T15:07:30.454Z,8.80
2018-11-21T15:10:01.391Z,7.70
2018-11-21T15:12:32.353Z,8.20
2018-11-21T15:15:03.268Z,8.53
2018-11-21T15:17:34.200Z,7.60
2018-11-21T15:20:08.516Z,7.53
2018-11-21T15:22:39.545Z,9.50
2018-11-21T15:25:13.472Z,8.00
2018-11-21T15:27:44.435Z,8.37
2018-11-21T15:30:18.892Z,7.57
2018-11-21T15:32:49.980Z,8.00
2018-11-21T15:35:21.295Z,7.23
2018-11-21T15:37:52.260Z,7.50
2018-11-21T15:40:24.515Z,8.67
2018-11-21T15:42:55.480Z,7.70
2018-11-21T15:45:27.103Z,8.47
2018-11-21T15:48:00.333Z,8.20
2018-11-21T15:50:32.163Z,8.47
2018-11-21T15:53:03.130Z,7.43
2018-11-21T15:55:34.089Z,8.00
2018-11-21T15:58:05.331Z,8.10
2018-11-21T16:00:36.628Z,7.93
2018-11-21T16:03:08.826Z,8.63
2018-11-21T16:05:39.826Z,8.93
2018-11-21T16:08:10.761Z,8.10
2018-11-21T16:10:43.269Z,7.63
2018-11-21T16:13:14.328Z,8.57
2018-11-21T16:15:51.075Z,8.70
2018-11-21T16:18:23.653Z,9.20
2018-11-21T16:20:54.648Z,8.20
2018-11-21T16:23:25.648Z,8.20
2018-11-21T16:25:56.594Z,7.60
2018-11-21T16:28:27.630Z,8.10
2018-11-21T16:30:58.629Z,8.40
2018-11-21T16:33:29.610Z,6.93
2018-11-21T16:36:00.562Z,8.00
2018-11-21T16:38:31.551Z,7.07
2018-11-21T16:41:02.510Z,7.40
2018-11-21T16:43:33.485Z,7.37
2018-11-21T16:46:04.485Z,8.10
2018-11-21T16:48:35.462Z,7.87
2018-11-21T16:51:06.464Z,9.73
2018-11-21T16:53:39.912Z,7.50
2018-11-21T16:56:10.860Z,9.47
2018-11-21T16:58:41.833Z,8.73
2018-11-21T17:01:12.768Z,9.87
2018-11-21T17:03:43.805Z,7.90
2018-11-21T17:06:14.685Z,7.20
2018-11-21T17:08:45.769Z,8.53
2018-11-21T17:11:16.713Z,7.73
2018-11-21T17:13:47.727Z,8.40
2018-11-21T17:16:18.707Z,7.63
2018-11-21T17:18:49.677Z,7.57
2018-11-21T17:21:20.666Z,7.90
